Time;durP1;ratioP1;P1;durP2;ratioP2;P2;SDS_P1;SDS_P2;PMS_P1;PMS_P2;Temp;Humidity;BMP_temperature;BMP_pressure;BME280_temperature;BME280_humidity;BME280_pressure;Samples;Min_cycle;Max_cycle;Signal;HPM_P1;HPM_P2
2022/03/02 00:02:07;;;;;;;10.03;6.10;;;;;;;;;;5029609;28;20189;-76
2022/03/02 00:04:32;;;;;;;9.03;6.43;;;;;;;;;;5048838;28;20224;-76
2022/03/02 00:06:57;;;;;;;10.53;7.03;;;;;;;;;;5030858;28;20233;-77
2022/03/02 00:09:23;;;;;;;10.40;6.60;;;;;;;;;;5031212;28;20228;-76
2022/03/02 00:11:48;;;;;;;10.07;6.83;;;;;;;;;;5031677;28;20178;-76
2022/03/02 00:14:13;;;;;;;9.80;6.43;;;;;;;;;;5048868;28;20216;-76
2022/03/02 00:16:38;;;;;;;9.20;6.13;;;;;;;;;;5031771;28;20174;-76
2022/03/02 00:19:04;;;;;;;9.23;6.77;;;;;;;;;;5050044;28;20170;-76
2022/03/02 00:21:29;;;;;;;10.93;6.00;;;;;;;;;;5031305;28;20181;-76
2022/03/02 00:23:54;;;;;;;10.17;6.87;;;;;;;;;;5032629;28;20169;-76
2022/03/02 00:26:19;;;;;;;13.40;7.27;;;;;;;;;;5035034;28;20220;-76
2022/03/02 00:28:45;;;;;;;8.83;6.63;;;;;;;;;;5044254;28;20174;-77
2022/03/02 00:31:10;;;;;;;10.57;7.17;;;;;;;;;;5033186;28;20210;-77
2022/03/02 00:33:36;;;;;;;8.40;6.50;;;;;;;;;;5051691;28;20203;-76
2022/03/02 00:36:01;;;;;;;10.03;6.40;;;;;;;;;;5031018;28;20206;-76
2022/03/02 00:38:27;;;;;;;10.07;6.57;;;;;;;;;;5031083;28;20313;-77
2022/03/02 00:40:52;;;;;;;12.73;7.10;;;;;;;;;;5029686;28;20174;-77
2022/03/02 00:43:17;;;;;;;10.97;6.67;;;;;;;;;;5032765;28;20193;-77
2022/03/02 00:45:43;;;;;;;8.40;6.63;;;;;;;;;;5030983;28;20249;-77
2022/03/02 00:48:08;;;;;;;10.67;6.43;;;;;;;;;;5031404;28;21051;-77
2022/03/02 00:50:34;;;;;;;11.03;7.10;;;;;;;;;;5030883;28;20768;-76
2022/03/02 00:52:59;;;;;;;11.67;6.00;;;;;;;;;;5051029;28;20177;-76
2022/03/02 00:55:24;;;;;;;10.33;6.23;;;;;;;;;;5047186;28;20257;-77
2022/03/02 00:57:50;;;;;;;15.23;6.53;;;;;;;;;;5034913;28;20170;-77
2022/03/02 01:00:15;;;;;;;10.77;6.20;;;;;;;;;;5030447;28;20181;-77
2022/03/02 01:02:41;;;;;;;11.80;7.00;;;;;;;;;;5031021;28;20174;-77
2022/03/02 01:05:07;;;;;;;10.07;6.27;;;;;;;;;;5037587;28;20205;-77
2022/03/02 01:07:32;;;;;;;11.90;6.90;;;;;;;;;;5034331;28;20221;-77
2022/03/02 01:09:58;;;;;;;11.43;6.30;;;;;;;;;;5033268;28;20193;-77
2022/03/02 01:12:23;;;;;;;9.47;7.13;;;;;;;;;;5032059;28;20199;-77
2022/03/02 01:14:49;;;;;;;10.40;7.27;;;;;;;;;;5058565;28;20205;-77
2022/03/02 01:17:14;;;;;;;10.27;6.63;;;;;;;;;;5034057;28;20182;-77
2022/03/02 01:19:39;;;;;;;11.30;6.27;;;;;;;;;;5034404;28;20332;-77
2022/03/02 01:22:05;;;;;;;10.20;7.07;;;;;;;;;;5051474;28;20200;-77
2022/03/02 01:24:30;;;;;;;13.63;6.97;;;;;;;;;;5051577;28;20189;-77
2022/03/02 01:26:55;;;;;;;9.57;6.23;;;;;;;;;;5052649;28;20171;-77
2022/03/02 01:29:23;;;;;;;10.80;6.63;;;;;;;;;;5051909;28;20240;-77
2022/03/02 01:31:48;;;;;;;9.57;6.17;;;;;;;;;;5053922;28;20228;-77
2022/03/02 01:34:13;;;;;;;9.13;5.83;;;;;;;;;;5050930;28;20181;-77
2022/03/02 01:36:38;;;;;;;9.93;6.43;;;;;;;;;;5052492;28;20237;-77
2022/03/02 01:39:03;;;;;;;9.87;6.17;;;;;;;;;;5030674;28;20189;-77
2022/03/02 01:41:29;;;;;;;10.23;6.43;;;;;;;;;;5037182;28;20246;-77
2022/03/02 01:43:55;;;;;;;12.60;6.93;;;;;;;;;;5036078;28;20175;-77
2022/03/02 01:46:20;;;;;;;10.83;7.07;;;;;;;;;;5036650;28;20185;-77
2022/03/02 01:48:46;;;;;;;11.97;6.77;;;;;;;;;;5051179;28;20177;-77
2022/03/02 01:51:11;;;;;;;11.03;6.70;;;;;;;;;;5052281;28;20220;-77
2022/03/02 01:53:37;;;;;;;9.93;6.43;;;;;;;;;;5043273;28;20181;-77
2022/03/02 01:56:02;;;;;;;10.07;6.70;;;;;;;;;;5039730;28;20243;-77
2022/03/02 01:58:28;;;;;;;10.50;6.83;;;;;;;;;;5034418;28;20224;-76
2022/03/02 02:00:54;;;;;;;9.53;6.13;;;;;;;;;;5054107;28;20235;-76
2022/03/02 02:03:19;;;;;;;9.53;7.27;;;;;;;;;;5050412;28;20235;-76
2022/03/02 02:05:45;;;;;;;13.17;7.17;;;;;;;;;;5051285;28;20197;-76
2022/03/02 02:08:10;;;;;;;12.83;6.97;;;;;;;;;;5051320;28;20309;-76
2022/03/02 02:10:35;;;;;;;11.13;7.30;;;;;;;;;;5028936;28;20201;-76
2022/03/02 02:13:01;;;;;;;12.13;7.53;;;;;;;;;;5050662;28;20189;-76
2022/03/02 02:15:26;;;;;;;11.40;7.33;;;;;;;;;;5034413;28;20206;-76
2022/03/02 02:17:51;;;;;;;8.60;6.27;;;;;;;;;;5033610;28;20178;-76
2022/03/02 02:20:16;;;;;;;9.37;7.20;;;;;;;;;;5032716;28;20182;-76
2022/03/02 02:22:43;;;;;;;8.47;5.90;;;;;;;;;;5033992;28;20177;-76
2022/03/02 02:25:08;;;;;;;10.47;7.03;;;;;;;;;;5050589;28;20224;-75
2022/03/02 02:27:34;;;;;;;11.43;7.33;;;;;;;;;;5055592;28;20448;-76
2022/03/02 02:29:59;;;;;;;10.40;7.47;;;;;;;;;;5052917;28;20187;-76
2022/03/02 02:32:25;;;;;;;11.80;7.13;;;;;;;;;;5051344;28;20200;-76
2022/03/02 02:34:50;;;;;;;12.60;8.10;;;;;;;;;;5050277;28;20206;-76
2022/03/02 02:37:15;;;;;;;13.17;6.73;;;;;;;;;;5033528;28;20170;-76
2022/03/02 02:39:41;;;;;;;11.47;8.00;;;;;;;;;;5032835;28;20205;-76
2022/03/02 02:42:07;;;;;;;11.77;7.30;;;;;;;;;;5051905;28;20211;-76
2022/03/02 02:44:34;;;;;;;9.37;6.93;;;;;;;;;;5032909;28;20176;-76
2022/03/02 02:46:59;;;;;;;8.67;6.73;;;;;;;;;;5032337;28;20185;-76
2022/03/02 02:49:25;;;;;;;13.57;7.87;;;;;;;;;;5050643;28;20591;-76
2022/03/02 02:51:50;;;;;;;12.57;7.77;;;;;;;;;;5050458;28;20216;-76
2022/03/02 02:54:16;;;;;;;12.57;7.20;;;;;;;;;;5027979;28;20182;-76
2022/03/02 02:56:41;;;;;;;11.60;7.27;;;;;;;;;;5050825;28;20205;-76
2022/03/02 02:59:06;;;;;;;13.60;8.07;;;;;;;;;;5032043;28;20174;-76
2022/03/02 03:01:32;;;;;;;10.37;7.17;;;;;;;;;;5032932;28;20579;-75
2022/03/02 03:03:57;;;;;;;13.10;7.77;;;;;;;;;;5031416;28;20197;-76
2022/03/02 03:06:22;;;;;;;11.00;8.03;;;;;;;;;;5050551;28;20178;-76
2022/03/02 03:08:47;;;;;;;11.63;7.53;;;;;;;;;;5049744;28;20178;-76
2022/03/02 03:11:13;;;;;;;10.17;6.97;;;;;;;;;;5033103;28;20251;-76
2022/03/02 03:13:38;;;;;;;12.93;8.20;;;;;;;;;;5032976;28;20178;-76
2022/03/02 03:16:03;;;;;;;13.13;7.30;;;;;;;;;;5050633;28;20204;-76
2022/03/02 03:18:28;;;;;;;11.57;6.53;;;;;;;;;;5033493;28;20178;-76
2022/03/02 03:20:54;;;;;;;9.17;6.33;;;;;;;;;;5048390;28;20236;-76
2022/03/02 03:23:19;;;;;;;10.53;7.80;;;;;;;;;;5033398;28;20180;-76
2022/03/02 03:25:44;;;;;;;11.00;8.13;;;;;;;;;;5031941;28;20182;-76
2022/03/02 03:28:10;;;;;;;12.60;8.33;;;;;;;;;;5031488;28;20188;-76
2022/03/02 03:30:35;;;;;;;13.97;7.80;;;;;;;;;;5049858;28;20170;-76
2022/03/02 03:33:02;;;;;;;13.73;8.30;;;;;;;;;;5033154;28;20177;-76
2022/03/02 03:35:27;;;;;;;11.90;7.17;;;;;;;;;;5053476;28;20198;-76
2022/03/02 03:37:53;;;;;;;13.43;7.60;;;;;;;;;;5034452;28;20180;-76
2022/03/02 03:40:20;;;;;;;11.20;7.70;;;;;;;;;;5030918;28;20183;-76
2022/03/02 03:42:46;;;;;;;11.17;7.30;;;;;;;;;;5041454;28;20427;-76
2022/03/02 03:45:12;;;;;;;11.63;7.17;;;;;;;;;;5036494;28;20252;-76
2022/03/02 03:47:37;;;;;;;14.07;8.23;;;;;;;;;;5030848;28;20181;-76
2022/03/02 03:50:03;;;;;;;11.70;6.93;;;;;;;;;;5031138;28;20178;-76
2022/03/02 03:52:29;;;;;;;12.17;7.47;;;;;;;;;;5032329;28;20187;-76
2022/03/02 03:54:54;;;;;;;11.57;7.47;;;;;;;;;;5030215;28;20198;-76
2022/03/02 03:57:19;;;;;;;12.87;7.63;;;;;;;;;;5034058;28;20181;-76
2022/03/02 03:59:45;;;;;;;14.67;7.53;;;;;;;;;;5048617;28;20173;-77
2022/03/02 04:02:10;;;;;;;10.47;7.57;;;;;;;;;;5050866;28;20178;-76
2022/03/02 04:04:35;;;;;;;9.97;7.13;;;;;;;;;;5050604;28;20233;-77
2022/03/02 04:07:00;;;;;;;10.50;7.27;;;;;;;;;;5032162;28;20218;-77
2022/03/02 04:09:25;;;;;;;14.37;7.73;;;;;;;;;;5034227;28;20180;-77
2022/03/02 04:11:51;;;;;;;10.17;7.00;;;;;;;;;;5031930;28;20274;-77
2022/03/02 04:14:16;;;;;;;11.57;7.37;;;;;;;;;;5036881;28;20181;-77
2022/03/02 04:16:41;;;;;;;10.77;7.23;;;;;;;;;;5032069;28;20180;-77
2022/03/02 04:19:06;;;;;;;10.87;6.50;;;;;;;;;;5031001;28;20237;-77
2022/03/02 04:21:32;;;;;;;13.30;8.27;;;;;;;;;;5033196;28;20176;-77
2022/03/02 04:23:57;;;;;;;12.40;8.53;;;;;;;;;;5042850;28;20183;-78
2022/03/02 04:26:22;;;;;;;15.33;8.00;;;;;;;;;;5035810;28;20177;-77
2022/03/02 04:28:48;;;;;;;15.77;8.10;;;;;;;;;;5043757;28;20181;-77
2022/03/02 04:31:13;;;;;;;12.20;7.53;;;;;;;;;;5034529;28;20273;-78
2022/03/02 04:33:38;;;;;;;9.70;7.03;;;;;;;;;;5037447;28;20372;-77
2022/03/02 04:36:04;;;;;;;10.87;6.97;;;;;;;;;;5032446;28;20221;-78
2022/03/02 04:38:29;;;;;;;13.33;7.67;;;;;;;;;;5032066;28;20267;-78
2022/03/02 04:40:54;;;;;;;10.17;7.13;;;;;;;;;;5051956;28;20181;-78
2022/03/02 04:43:20;;;;;;;9.67;6.53;;;;;;;;;;5032467;28;20257;-78
2022/03/02 04:45:45;;;;;;;13.30;7.20;;;;;;;;;;5048851;28;20188;-78
2022/03/02 04:48:10;;;;;;;14.40;7.80;;;;;;;;;;5052267;28;20192;-78
2022/03/02 04:50:35;;;;;;;12.93;8.47;;;;;;;;;;5038108;28;20182;-78
2022/03/02 04:53:01;;;;;;;14.73;8.07;;;;;;;;;;5042757;28;20292;-78
2022/03/02 04:55:26;;;;;;;11.77;8.07;;;;;;;;;;5034729;28;20205;-78
2022/03/02 04:57:52;;;;;;;9.73;6.57;;;;;;;;;;5053639;28;20172;-78
2022/03/02 05:00:20;;;;;;;11.63;8.10;;;;;;;;;;5054121;28;20271;-78
2022/03/02 05:02:45;;;;;;;12.77;8.90;;;;;;;;;;5036419;28;20182;-78
2022/03/02 05:05:11;;;;;;;14.33;7.43;;;;;;;;;;5034746;28;20202;-78
2022/03/02 05:07:37;;;;;;;12.37;7.40;;;;;;;;;;5035558;28;20244;-78
2022/03/02 05:10:04;;;;;;;13.97;8.00;;;;;;;;;;5033439;28;20218;-78
2022/03/02 05:12:31;;;;;;;11.80;8.37;;;;;;;;;;5033767;28;20180;-78
2022/03/02 05:14:57;;;;;;;16.20;8.27;;;;;;;;;;5049228;28;20211;-77
2022/03/02 05:17:23;;;;;;;11.17;7.53;;;;;;;;;;5053848;28;20174;-78
2022/03/02 05:19:48;;;;;;;14.47;7.63;;;;;;;;;;5049158;28;20204;-78
2022/03/02 05:22:14;;;;;;;12.63;6.97;;;;;;;;;;5052771;28;20202;-77
2022/03/02 05:24:39;;;;;;;11.83;6.57;;;;;;;;;;5051656;28;20204;-78
2022/03/02 05:27:05;;;;;;;13.27;7.23;;;;;;;;;;5037534;28;20209;-77
2022/03/02 05:29:31;;;;;;;11.67;7.60;;;;;;;;;;5034068;28;20208;-78
2022/03/02 05:31:56;;;;;;;11.83;8.40;;;;;;;;;;5020870;28;20181;-78
2022/03/02 05:34:21;;;;;;;11.97;7.27;;;;;;;;;;5028412;28;20198;-77
2022/03/02 05:36:47;;;;;;;13.70;8.37;;;;;;;;;;5034621;28;20172;-77
2022/03/02 05:39:12;;;;;;;11.23;7.67;;;;;;;;;;5048371;28;20225;-77
2022/03/02 05:41:38;;;;;;;19.13;9.03;;;;;;;;;;5050201;28;20199;-77
2022/03/02 05:44:04;;;;;;;12.77;8.47;;;;;;;;;;5033420;28;20191;-77
2022/03/02 05:46:30;;;;;;;12.70;7.60;;;;;;;;;;5047951;28;20242;-77
2022/03/02 05:48:55;;;;;;;22.27;12.40;;;;;;;;;;5034388;28;20204;-77
2022/03/02 05:51:20;;;;;;;10.87;7.73;;;;;;;;;;5055416;28;20188;-77
2022/03/02 05:53:45;;;;;;;10.13;7.57;;;;;;;;;;5033936;28;20184;-77
2022/03/02 05:56:11;;;;;;;9.17;7.20;;;;;;;;;;5035094;28;20196;-77
2022/03/02 05:58:36;;;;;;;11.27;8.17;;;;;;;;;;5056640;28;20246;-77
2022/03/02 06:01:01;;;;;;;10.80;7.97;;;;;;;;;;5050947;28;20262;-77
2022/03/02 06:03:27;;;;;;;12.13;7.67;;;;;;;;;;5055262;28;20185;-76
2022/03/02 06:05:52;;;;;;;11.47;7.90;;;;;;;;;;5047353;28;20232;-76
2022/03/02 06:08:17;;;;;;;11.33;7.73;;;;;;;;;;5033951;28;20230;-77
2022/03/02 06:10:43;;;;;;;13.37;8.00;;;;;;;;;;5032973;28;20192;-77
2022/03/02 06:13:08;;;;;;;16.77;12.80;;;;;;;;;;5036800;28;20188;-77
2022/03/02 06:15:34;;;;;;;14.47;8.93;;;;;;;;;;5033736;28;20211;-77
2022/03/02 06:18:01;;;;;;;13.77;8.20;;;;;;;;;;5053936;28;20193;-77
2022/03/02 06:20:27;;;;;;;15.80;10.10;;;;;;;;;;5050853;28;20197;-77
2022/03/02 06:22:52;;;;;;;12.97;9.03;;;;;;;;;;5051408;28;20170;-77
2022/03/02 06:25:17;;;;;;;16.33;8.47;;;;;;;;;;5033063;28;20179;-77
2022/03/02 06:27:43;;;;;;;14.23;8.40;;;;;;;;;;5038829;28;20185;-77
2022/03/02 06:30:08;;;;;;;9.97;7.47;;;;;;;;;;5050474;28;20179;-77
2022/03/02 06:32:34;;;;;;;16.00;8.20;;;;;;;;;;5037682;28;20272;-77
2022/03/02 06:35:00;;;;;;;12.60;8.67;;;;;;;;;;5035368;28;20204;-77
2022/03/02 06:37:26;;;;;;;17.87;9.23;;;;;;;;;;5034186;28;20202;-77
2022/03/02 06:39:51;;;;;;;12.93;7.70;;;;;;;;;;5048728;28;20197;-77
2022/03/02 06:42:38;;;;;;;11.33;7.50;;;;;;;;;;5049158;28;20549;-77
2022/03/02 06:45:17;;;;;;;12.90;6.60;;;;;;;;;;5016374;28;20207;-77
2022/03/02 06:47:48;;;;;;;12.50;7.80;;;;;;;;;;5032501;28;20170;-79
2022/03/02 06:50:16;;;;;;;14.17;8.23;;;;;;;;;;5033728;28;20203;-78
2022/03/02 06:52:44;;;;;;;9.63;7.20;;;;;;;;;;5033342;28;20184;-78
2022/03/02 06:55:15;;;;;;;10.77;6.83;;;;;;;;;;5033490;28;20207;-78
2022/03/02 06:57:43;;;;;;;10.10;6.97;;;;;;;;;;5049670;28;20230;-78
2022/03/02 07:00:16;;;;;;;11.13;7.87;;;;;;;;;;5034532;28;20261;-78
2022/03/02 07:02:45;;;;;;;13.70;7.43;;;;;;;;;;5033119;28;20172;-78
2022/03/02 07:05:10;;;;;;;11.03;6.47;;;;;;;;;;5025743;28;20207;-77
2022/03/02 07:07:36;;;;;;;10.90;6.73;;;;;;;;;;5023397;28;20222;-77
2022/03/02 07:10:03;;;;;;;12.23;7.57;;;;;;;;;;5032005;28;20180;-78
2022/03/02 07:12:28;;;;;;;14.83;7.57;;;;;;;;;;5051524;28;20220;-78
2022/03/02 07:14:54;;;;;;;10.77;6.53;;;;;;;;;;5033534;28;20241;-78
2022/03/02 07:17:21;;;;;;;79.80;13.60;;;;;;;;;;5037757;28;20188;-79
2022/03/02 07:19:46;;;;;;;26.50;9.27;;;;;;;;;;5051595;28;20206;-80
2022/03/02 07:22:11;;;;;;;21.13;7.67;;;;;;;;;;5036897;28;20220;-78
2022/03/02 07:24:41;;;;;;;14.20;6.73;;;;;;;;;;5047276;28;20313;-77
2022/03/02 07:27:06;;;;;;;16.07;6.60;;;;;;;;;;5047467;28;20180;-77
2022/03/02 07:29:34;;;;;;;15.30;7.40;;;;;;;;;;5032948;28;20187;-77
2022/03/02 07:31:59;;;;;;;14.03;7.43;;;;;;;;;;5024496;28;20178;-77
2022/03/02 07:34:25;;;;;;;25.10;10.07;;;;;;;;;;5036177;28;20186;-77
2022/03/02 07:36:56;;;;;;;15.10;9.50;;;;;;;;;;5035691;28;20219;-77
2022/03/02 07:39:21;;;;;;;12.43;7.43;;;;;;;;;;5030566;28;20248;-77
2022/03/02 07:41:47;;;;;;;12.93;7.50;;;;;;;;;;5035005;28;20186;-77
2022/03/02 07:44:12;;;;;;;14.83;6.53;;;;;;;;;;5025468;28;20178;-77
2022/03/02 07:46:38;;;;;;;8.77;6.37;;;;;;;;;;5042361;28;20174;-77
2022/03/02 07:49:04;;;;;;;15.97;6.83;;;;;;;;;;5046635;28;20177;-77
2022/03/02 07:51:32;;;;;;;9.17;6.10;;;;;;;;;;5029416;28;20177;-77
2022/03/02 07:54:00;;;;;;;11.83;6.60;;;;;;;;;;5019842;28;20222;-77
2022/03/02 07:56:28;;;;;;;10.70;6.63;;;;;;;;;;5025261;28;20292;-77
2022/03/02 07:58:53;;;;;;;12.13;6.67;;;;;;;;;;5030267;28;20184;-77
2022/03/02 08:01:19;;;;;;;12.50;7.00;;;;;;;;;;5033437;28;20182;-77
2022/03/02 08:03:45;;;;;;;10.30;6.93;;;;;;;;;;5049514;28;20203;-77
2022/03/02 08:06:10;;;;;;;9.63;6.63;;;;;;;;;;5029564;28;20182;-77
2022/03/02 08:08:36;;;;;;;10.37;7.10;;;;;;;;;;5046512;28;20248;-77
2022/03/02 08:11:02;;;;;;;11.23;7.33;;;;;;;;;;5031004;28;20182;-77
2022/03/02 08:13:31;;;;;;;11.07;6.33;;;;;;;;;;5032048;28;20185;-77
2022/03/02 08:15:57;;;;;;;9.53;6.40;;;;;;;;;;5034584;28;20198;-76
2022/03/02 08:18:22;;;;;;;10.57;6.63;;;;;;;;;;5050474;28;20210;-77
2022/03/02 08:20:48;;;;;;;8.63;6.23;;;;;;;;;;5051303;28;20165;-77
2022/03/02 08:23:14;;;;;;;9.77;6.70;;;;;;;;;;5034509;28;20183;-76
2022/03/02 08:25:39;;;;;;;8.63;6.50;;;;;;;;;;5035592;28;20189;-76
2022/03/02 08:28:09;;;;;;;11.57;9.80;;;;;;;;;;5052178;28;20186;-76
2022/03/02 08:30:36;;;;;;;12.57;7.90;;;;;;;;;;5041839;28;20174;-76
2022/03/02 08:33:01;;;;;;;12.27;6.43;;;;;;;;;;5033881;28;20188;-75
2022/03/02 08:35:30;;;;;;;11.17;6.00;;;;;;;;;;5051833;28;20399;-75
2022/03/02 08:37:56;;;;;;;8.57;6.03;;;;;;;;;;5036503;28;20171;-75
2022/03/02 08:40:21;;;;;;;11.03;7.67;;;;;;;;;;5050587;28;20227;-75
2022/03/02 08:42:49;;;;;;;7.80;5.70;;;;;;;;;;5051906;28;20170;-75
2022/03/02 08:45:14;;;;;;;10.30;6.30;;;;;;;;;;5035649;28;20266;-75
2022/03/02 08:47:39;;;;;;;8.00;6.03;;;;;;;;;;5035207;28;20336;-76
2022/03/02 08:50:05;;;;;;;12.50;7.00;;;;;;;;;;5050008;28;20170;-75
2022/03/02 08:52:31;;;;;;;9.47;6.20;;;;;;;;;;5033250;28;20170;-76
2022/03/02 08:55:00;;;;;;;9.57;6.07;;;;;;;;;;5030932;28;20203;-76
2022/03/02 08:57:25;;;;;;;10.03;5.97;;;;;;;;;;5034335;28;20553;-75
2022/03/02 08:59:54;;;;;;;6.27;4.90;;;;;;;;;;5047865;28;20257;-75
2022/03/02 09:02:21;;;;;;;11.43;6.00;;;;;;;;;;5053299;28;20184;-74
2022/03/02 09:04:47;;;;;;;10.83;6.13;;;;;;;;;;5035476;28;20351;-74
2022/03/02 09:07:12;;;;;;;9.23;6.10;;;;;;;;;;5046691;28;20312;-75
2022/03/02 09:09:39;;;;;;;9.37;6.47;;;;;;;;;;5032880;28;20186;-76
2022/03/02 09:12:05;;;;;;;11.00;6.87;;;;;;;;;;5034506;28;20193;-75
2022/03/02 09:14:30;;;;;;;11.70;6.23;;;;;;;;;;5033950;28;20182;-75
2022/03/02 09:16:55;;;;;;;9.30;6.37;;;;;;;;;;5052588;28;20166;-76
2022/03/02 09:19:21;;;;;;;15.93;8.40;;;;;;;;;;5043641;28;20288;-76
2022/03/02 09:21:46;;;;;;;14.37;7.67;;;;;;;;;;5034524;28;20166;-76
2022/03/02 09:24:12;;;;;;;15.20;8.40;;;;;;;;;;5033679;28;20179;-77
2022/03/02 09:26:41;;;;;;;10.87;7.47;;;;;;;;;;5051076;28;20174;-75
2022/03/02 09:29:06;;;;;;;11.83;8.27;;;;;;;;;;5033558;28;20174;-75
2022/03/02 09:31:36;;;;;;;13.87;8.27;;;;;;;;;;5052576;28;20231;-74
2022/03/02 09:34:04;;;;;;;13.83;9.17;;;;;;;;;;5050897;28;20208;-75
2022/03/02 09:36:32;;;;;;;15.07;8.87;;;;;;;;;;5033556;28;20202;-75
2022/03/02 09:38:58;;;;;;;17.17;8.53;;;;;;;;;;5050994;28;20189;-74
2022/03/02 09:41:32;;;;;;;14.33;9.23;;;;;;;;;;5049553;28;20178;-75
2022/03/02 09:43:58;;;;;;;12.83;8.93;;;;;;;;;;5034339;28;20268;-74
2022/03/02 09:46:30;;;;;;;13.40;7.80;;;;;;;;;;5034207;28;20242;-74
2022/03/02 09:48:57;;;;;;;13.60;8.90;;;;;;;;;;5033221;28;20736;-74
2022/03/02 09:51:23;;;;;;;11.17;8.23;;;;;;;;;;5033939;28;20420;-75
2022/03/02 09:53:49;;;;;;;12.20;8.37;;;;;;;;;;5050636;28;20214;-75
2022/03/02 09:56:14;;;;;;;11.10;7.60;;;;;;;;;;5031666;28;20205;-74
2022/03/02 09:58:39;;;;;;;13.30;8.20;;;;;;;;;;5047602;28;20216;-74
2022/03/02 10:01:08;;;;;;;13.63;8.77;;;;;;;;;;5051821;28;20269;-75
2022/03/02 10:03:37;;;;;;;14.67;11.00;;;;;;;;;;5029413;28;20233;-74
2022/03/02 10:06:04;;;;;;;12.70;8.00;;;;;;;;;;5032970;28;20178;-74
2022/03/02 10:08:32;;;;;;;14.67;7.67;;;;;;;;;;5037120;28;20257;-74
2022/03/02 10:11:01;;;;;;;12.73;8.20;;;;;;;;;;5032432;28;20188;-74
2022/03/02 10:13:26;;;;;;;12.70;8.10;;;;;;;;;;5050547;28;20175;-74
2022/03/02 10:15:52;;;;;;;11.53;8.67;;;;;;;;;;5032753;28;20189;-74
2022/03/02 10:18:19;;;;;;;11.77;8.47;;;;;;;;;;5035503;28;20206;-74
2022/03/02 10:20:49;;;;;;;12.53;7.77;;;;;;;;;;5027790;28;20209;-74
2022/03/02 10:23:33;;;;;;;12.00;7.87;;;;;;;;;;5025588;28;20181;-74
2022/03/02 10:25:59;;;;;;;13.30;8.80;;;;;;;;;;5047834;28;20190;-74
2022/03/02 10:28:44;;;;;;;13.00;7.72;;;;;;;;;;5030535;28;20274;-74
2022/03/02 10:31:27;;;;;;;10.33;7.40;;;;;;;;;;5031813;28;20210;-74
2022/03/02 10:33:54;;;;;;;11.73;8.07;;;;;;;;;;5029567;28;20179;-74
2022/03/02 10:36:20;;;;;;;14.33;8.03;;;;;;;;;;5032062;28;20232;-74
2022/03/02 10:38:50;;;;;;;16.13;9.43;;;;;;;;;;5048981;28;20178;-74
2022/03/02 10:41:17;;;;;;;12.77;8.53;;;;;;;;;;5032581;28;20174;-74
2022/03/02 10:43:53;;;;;;;12.27;8.53;;;;;;;;;;5032775;28;20205;-74
2022/03/02 10:46:19;;;;;;;14.43;8.90;;;;;;;;;;5032691;28;20186;-73
2022/03/02 10:48:47;;;;;;;11.27;7.73;;;;;;;;;;5031284;28;20680;-74
2022/03/02 10:51:13;;;;;;;15.10;9.33;;;;;;;;;;5049578;28;20480;-74
2022/03/02 10:53:44;;;;;;;14.33;9.97;;;;;;;;;;5032611;28;20224;-74
2022/03/02 10:56:09;;;;;;;10.63;8.43;;;;;;;;;;5033219;28;20216;-73
2022/03/02 10:58:36;;;;;;;12.63;7.80;;;;;;;;;;5031074;28;20174;-73
2022/03/02 11:01:02;;;;;;;12.77;8.57;;;;;;;;;;5033124;28;20185;-73
2022/03/02 11:03:28;;;;;;;11.63;8.17;;;;;;;;;;5034523;28;20202;-73
2022/03/02 11:05:55;;;;;;;12.57;8.13;;;;;;;;;;5032682;28;20273;-73
2022/03/02 11:08:22;;;;;;;10.27;7.50;;;;;;;;;;5050044;28;20230;-73
2022/03/02 11:10:48;;;;;;;13.50;9.03;;;;;;;;;;5030141;28;20205;-73
2022/03/02 11:13:15;;;;;;;13.50;9.03;;;;;;;;;;5032144;28;20276;-73
2022/03/02 11:15:43;;;;;;;10.57;7.77;;;;;;;;;;5027124;28;20213;-73
2022/03/02 11:18:08;;;;;;;11.40;8.27;;;;;;;;;;5036471;28;20178;-73
2022/03/02 11:20:34;;;;;;;14.70;8.90;;;;;;;;;;5031910;28;20171;-73
2022/03/02 11:23:00;;;;;;;13.97;8.20;;;;;;;;;;5022563;28;20182;-73
2022/03/02 11:25:45;;;;;;;13.93;7.70;;;;;;;;;;5030443;28;20186;-74
2022/03/02 11:28:37;;;;;;;11.27;6.97;;;;;;;;;;5030073;28;20196;-74
2022/03/02 11:31:04;;;;;;;11.60;8.23;;;;;;;;;;5027912;28;20186;-73
2022/03/02 11:33:29;;;;;;;13.87;8.83;;;;;;;;;;5030090;28;20178;-73
2022/03/02 11:35:59;;;;;;;14.33;7.87;;;;;;;;;;5027813;28;20209;-73
2022/03/02 11:38:28;;;;;;;10.83;8.13;;;;;;;;;;5031455;28;20207;-74
2022/03/02 11:40:53;;;;;;;13.77;7.40;;;;;;;;;;5041963;28;20185;-73
2022/03/02 11:43:20;;;;;;;12.63;7.93;;;;;;;;;;5032359;28;20186;-73
2022/03/02 11:45:45;;;;;;;10.23;8.43;;;;;;;;;;5034445;28;20201;-73
2022/03/02 11:48:15;;;;;;;12.37;7.63;;;;;;;;;;5032041;28;20185;-73
2022/03/02 11:50:59;;;;;;;9.47;7.07;;;;;;;;;;5048684;28;20247;-73
2022/03/02 11:53:35;;;;;;;10.57;8.07;;;;;;;;;;5046428;28;20227;-73
2022/03/02 11:56:01;;;;;;;12.20;7.43;;;;;;;;;;5046494;28;20278;-73
2022/03/02 11:58:27;;;;;;;12.97;8.13;;;;;;;;;;5046850;28;20178;-73
2022/03/02 12:00:52;;;;;;;13.33;7.20;;;;;;;;;;5049841;28;20231;-73
2022/03/02 12:03:18;;;;;;;12.37;8.40;;;;;;;;;;5030336;28;20178;-73
2022/03/02 12:05:43;;;;;;;13.23;7.97;;;;;;;;;;5032253;28;20246;-73
2022/03/02 12:08:10;;;;;;;11.07;7.83;;;;;;;;;;5025682;28;20256;-73
2022/03/02 12:10:36;;;;;;;12.40;8.27;;;;;;;;;;5027264;28;20206;-73
2022/03/02 12:13:02;;;;;;;15.60;8.33;;;;;;;;;;5053364;28;20186;-73
2022/03/02 12:16:03;;;;;;;15.70;7.80;;;;;;;;;;5050676;28;20201;-73
2022/03/02 12:18:28;;;;;;;13.17;7.93;;;;;;;;;;5013087;28;20219;-74
2022/03/02 12:20:54;;;;;;;15.13;7.77;;;;;;;;;;5011702;28;20203;-73
2022/03/02 12:23:29;;;;;;;12.80;9.27;;;;;;;;;;5009643;28;20209;-74
2022/03/02 12:25:55;;;;;;;17.07;9.23;;;;;;;;;;4996334;28;20200;-73
2022/03/02 12:28:21;;;;;;;16.87;8.67;;;;;;;;;;4992223;28;20208;-73
2022/03/02 12:30:46;;;;;;;14.10;8.53;;;;;;;;;;5011533;28;20180;-73
2022/03/02 12:33:12;;;;;;;15.33;8.07;;;;;;;;;;5000641;28;20188;-73
2022/03/02 12:35:37;;;;;;;11.70;7.97;;;;;;;;;;5025794;28;20202;-73
2022/03/02 12:38:07;;;;;;;10.97;8.17;;;;;;;;;;5008880;28;20178;-73
2022/03/02 12:40:39;;;;;;;11.90;6.77;;;;;;;;;;4991672;28;20187;-73
2022/03/02 12:43:06;;;;;;;15.70;8.10;;;;;;;;;;4995999;28;20181;-73
2022/03/02 12:45:34;;;;;;;15.80;9.97;;;;;;;;;;5020891;28;20202;-73
2022/03/02 12:48:01;;;;;;;12.37;7.87;;;;;;;;;;5008736;28;20211;-74
2022/03/02 12:50:26;;;;;;;12.53;8.43;;;;;;;;;;5004378;28;20188;-73
2022/03/02 12:52:52;;;;;;;12.73;8.87;;;;;;;;;;5032309;28;20273;-73
2022/03/02 12:55:17;;;;;;;10.50;7.47;;;;;;;;;;5034633;28;20198;-73
2022/03/02 12:57:43;;;;;;;12.17;7.47;;;;;;;;;;5034809;28;20491;-73
2022/03/02 13:00:10;;;;;;;12.60;7.90;;;;;;;;;;5031810;28;20170;-73
2022/03/02 13:02:37;;;;;;;12.83;8.20;;;;;;;;;;5039374;28;20183;-73
2022/03/02 13:05:18;;;;;;;11.83;7.90;;;;;;;;;;5053376;28;20222;-73
2022/03/02 13:08:02;;;;;;;11.37;8.33;;;;;;;;;;5045866;28;20216;-73
2022/03/02 13:10:27;;;;;;;11.10;7.87;;;;;;;;;;5034468;28;20171;-74
2022/03/02 13:12:56;;;;;;;12.03;7.97;;;;;;;;;;5029853;28;20241;-74
2022/03/02 13:15:24;;;;;;;14.47;9.10;;;;;;;;;;5044643;28;20218;-73
2022/03/02 13:18:11;;;;;;;14.93;9.40;;;;;;;;;;5047730;28;20252;-74
2022/03/02 13:21:03;;;;;;;12.33;7.53;;;;;;;;;;5019877;28;20208;-74
2022/03/02 13:23:28;;;;;;;12.97;9.13;;;;;;;;;;5012199;28;20193;-74
2022/03/02 13:26:00;;;;;;;12.43;9.33;;;;;;;;;;5036117;28;20183;-73
2022/03/02 13:28:26;;;;;;;12.57;8.27;;;;;;;;;;5035601;28;20178;-73
2022/03/02 13:31:07;;;;;;;13.93;9.37;;;;;;;;;;5048421;28;20187;-73
2022/03/02 13:33:51;;;;;;;15.87;8.90;;;;;;;;;;5051869;28;20190;-74
2022/03/02 13:36:31;;;;;;;13.87;8.37;;;;;;;;;;5051374;28;20199;-73
2022/03/02 13:39:05;;;;;;;13.73;9.83;;;;;;;;;;5035567;28;20174;-74
2022/03/02 13:41:38;;;;;;;18.43;8.40;;;;;;;;;;5028987;28;20183;-73
2022/03/02 13:44:18;;;;;;;14.03;9.67;;;;;;;;;;5035739;28;20212;-73
2022/03/02 13:46:44;;;;;;;13.40;9.27;;;;;;;;;;5033076;28;20172;-73
2022/03/02 13:49:09;;;;;;;16.27;9.63;;;;;;;;;;5029704;28;20189;-74
2022/03/02 13:51:48;;;;;;;15.23;9.87;;;;;;;;;;5034075;28;20175;-73
2022/03/02 13:54:24;;;;;;;12.90;9.00;;;;;;;;;;5030105;28;20205;-73
2022/03/02 13:56:49;;;;;;;12.77;8.73;;;;;;;;;;5048451;28;20228;-73
2022/03/02 13:59:15;;;;;;;11.73;8.70;;;;;;;;;;5054407;28;20206;-73
2022/03/02 14:01:41;;;;;;;13.23;9.80;;;;;;;;;;5040845;28;20215;-74
2022/03/02 14:04:07;;;;;;;14.43;10.80;;;;;;;;;;5051779;28;20223;-73
2022/03/02 14:06:33;;;;;;;13.57;10.17;;;;;;;;;;5052254;28;20206;-73
2022/03/02 14:08:59;;;;;;;17.43;11.13;;;;;;;;;;5050058;28;20223;-73
2022/03/02 14:11:27;;;;;;;13.87;9.60;;;;;;;;;;5033511;28;20211;-74
2022/03/02 14:13:52;;;;;;;16.37;9.90;;;;;;;;;;5043014;28;20198;-74
2022/03/02 14:16:17;;;;;;;13.27;9.17;;;;;;;;;;5041484;28;20205;-73
2022/03/02 14:18:45;;;;;;;12.67;9.63;;;;;;;;;;5049413;28;20211;-73
2022/03/02 14:21:10;;;;;;;15.13;10.50;;;;;;;;;;5044510;28;20267;-74
2022/03/02 14:23:56;;;;;;;16.07;10.70;;;;;;;;;;5041880;28;20271;-73
2022/03/02 14:26:21;;;;;;;13.50;9.10;;;;;;;;;;5027616;28;20410;-74
2022/03/02 14:28:48;;;;;;;17.23;11.07;;;;;;;;;;5022724;28;20269;-73
2022/03/02 14:31:13;;;;;;;16.00;10.03;;;;;;;;;;5039366;28;20274;-73